CDT,Max TemperatureF,Mean TemperatureF,Min TemperatureF,Max Dew PointF,MeanDew PointF,Min DewpointF,Max Humidity, Mean Humidity, Min Humidity, Max Sea Level PressureIn, Mean Sea Level PressureIn, Min Sea Level PressureIn, Max VisibilityMiles, Mean VisibilityMiles, Min VisibilityMiles, Max Wind SpeedMPH, Mean Wind SpeedMPH, Max Gust SpeedMPH,PrecipitationIn, CloudCover, Events, WindDirDegrees
2013-7-1,85,75,65,67,63,60,93,69,44,29.91,29.85,29.78,10,10,10,15,6,23,T,2,Rain,296
2013-7-2,86,76,65,64,62,59,93,69,44,30.04,29.98,29.90,10,10,10,12,4,15,0.00,4,,272
2013-7-3,86,75,63,68,64,61,93,70,47,30.09,30.06,30.02,10,10,10,17,3,21,0.00,2,,109
2013-7-4,74,72,69,70,68,65,93,89,84,30.08,30.05,30.01,10,10,10,13,3,15,3.42,7,Rain-Thunderstorm,102
2013-7-5,80,75,69,73,70,66,100,87,74,30.12,30.08,30.02,10,10,10,21,5,26,0.23,7,Rain-Thunderstorm,139
2013-7-6,84,77,69,72,69,66,100,83,65,30.13,30.09,30.04,10,10,10,14,4,16,0.06,7,Rain,143
2013-7-7,88,79,70,73,70,66,93,74,55,30.15,30.11,30.06,10,10,10,16,2,20,T,5,,131
2013-7-8,90,81,71,73,71,69,93,75,56,30.19,30.14,30.08,10,10,10,7,2,10,0.00,5,,151
2013-7-9,92,82,71,75,72,68,93,75,56,30.18,30.11,30.04,10,10,10,17,4,21,0.00,1,,243
2013-7-10,93,83,73,75,73,70,94,75,56,30.07,30.00,29.93,10,10,10,17,5,24,0.38,2,Rain-Thunderstorm,264
2013-7-11,90,82,73,77,73,70,93,78,63,29.99,29.94,29.89,10,10,10,20,3,25,1.34,3,Rain-Thunderstorm,174
2013-7-12,87,78,69,70,65,60,82,63,44,30.00,29.96,29.93,10,10,10,10,4,16,0.00,1,,26
2013-7-13,87,75,62,70,64,58,90,68,46,30.04,29.99,29.95,10,10,10,13,3,17,0.13,2,Rain-Thunderstorm,64
2013-7-14,86,79,72,74,71,69,94,80,65,30.13,30.07,30.01,10,10,10,12,4,16,0.24,4,Rain,109
2013-7-15,88,82,75,72,71,69,87,71,55,30.25,30.19,30.12,10,10,10,16,7,21,0.05,4,,111
2013-7-16,91,82,72,74,71,69,87,68,49,30.32,30.26,30.22,10,10,10,12,4,16,0.00,1,,111
2013-7-17,95,83,71,77,72,68,93,71,49,30.30,30.24,30.16,10,10,10,8,1,12,0.00,0,,360
2013-7-18,92,83,73,74,71,68,87,68,49,30.19,30.12,30.05,10,10,10,14,3,15,0.00,1,,136
2013-7-19,93,82,71,72,70,68,93,70,46,30.10,30.04,29.96,10,10,10,14,3,18,0.00,1,,206
2013-7-20,92,81,70,74,71,68,93,70,47,30.02,29.97,29.88,10,10,10,14,5,21,0.00,1,Thunderstorm,205
2013-7-21,89,81,72,75,71,64,88,76,63,30.01,29.97,29.91,10,10,10,28,4,38,0.59,3,Rain-Thunderstorm,181
2013-7-22,79,75,71,72,70,67,93,84,74,30.02,29.96,29.91,10,10,10,23,7,29,0.40,5,Rain,230
2013-7-23,83,77,71,75,71,68,93,81,69,29.97,29.92,29.86,10,10,10,17,5,21,0.37,4,Rain-Thunderstorm,236
2013-7-24,88,80,71,74,71,68,90,78,65,29.93,29.89,29.86,10,10,10,9,3,13,T,5,Thunderstorm,348
2013-7-25,87,78,68,68,64,62,84,66,48,30.05,30.00,29.93,10,10,10,10,4,14,0.00,1,,360
2013-7-26,89,77,64,69,65,61,87,67,46,30.06,30.03,29.97,10,10,10,9,2,12,0.00,1,,307
2013-7-27,83,77,71,69,68,65,90,74,58,29.98,29.95,29.91,10,10,10,13,3,16,T,3,Rain,266
2013-7-28,84,76,68,69,64,61,87,71,55,30.09,30.02,29.94,10,10,10,8,3,13,0.00,1,,52
2013-7-29,84,75,65,63,60,55,87,64,40,30.18,30.14,30.07,10,10,10,8,2,21,0.00,0,,72
2013-7-30,91,77,63,74,67,60,90,71,52,30.20,30.13,30.07,10,10,10,22,3,25,0.36,3,Rain-Thunderstorm,171
2013-7-31,87,80,73,75,72,70,94,80,65,30.07,30.02,29.95,10,10,10,17,3,24,0.11,5,Rain-Thunderstorm,226